Time;durP1;ratioP1;P1;durP2;ratioP2;P2;SDS_P1;SDS_P2;PMS_P1;PMS_P2;Temp;Humidity;BMP_temperature;BMP_pressure;BME280_temperature;BME280_humidity;BME280_pressure;Samples;Min_cycle;Max_cycle;Signal;HPM_P1;HPM_P2
2023/07/24 00:02:07;;;;;;;;;;;;;;;;;;5092125;28;19931;-87
2023/07/24 00:04:33;;;;;;;;;;;;;;;;;;5075231;28;19927;-87
2023/07/24 00:06:59;;;;;;;;;;;;;;;;;;5092360;28;20263;-87
2023/07/24 00:09:25;;;;;;;;;;;;;;;;;;5075439;28;19920;-88
2023/07/24 00:11:51;;;;;;;;;;;;;;;;;;5092160;28;19927;-87
2023/07/24 00:14:16;;;;;;;;;;;;;;;;;;5092180;28;19920;-88
2023/07/24 00:16:42;;;;;;;;;;;;;;;;;;5093231;28;19920;-88
2023/07/24 00:19:08;;;;;;;;;;;;;;;;;;5075122;28;20345;-88
2023/07/24 00:21:34;;;;;;;;;;;;;;;;;;5091956;28;19924;-88
2023/07/24 00:24:00;;;;;;;;;;;;;;;;;;5093072;28;19943;-88
2023/07/24 00:26:26;;;;;;;;;;;;;;;;;;5074876;28;19974;-88
2023/07/24 00:28:52;;;;;;;;;;;;;;;;;;5092028;28;19946;-87
2023/07/24 00:31:18;;;;;;;;;;;;;;;;;;5093058;28;20015;-88
2023/07/24 00:33:44;;;;;;;;;;;;;;;;;;5092994;28;19975;-88
2023/07/24 00:36:10;;;;;;;;;;;;;;;;;;5090691;28;19927;-87
2023/07/24 00:38:35;;;;;;;;;;;;;;;;;;5074560;28;19977;-87
2023/07/24 00:41:01;;;;;;;;;;;;;;;;;;5091615;28;19924;-87
2023/07/24 00:43:27;;;;;;;;;;;;;;;;;;5091448;28;19920;-87
2023/07/24 00:45:53;;;;;;;;;;;;;;;;;;5092847;28;19928;-87
2023/07/24 00:48:19;;;;;;;;;;;;;;;;;;5091435;28;20367;-87
2023/07/24 00:50:45;;;;;;;;;;;;;;;;;;5092820;28;19928;-87
2023/07/24 00:53:11;;;;;;;;;;;;;;;;;;5092585;28;20054;-87
2023/07/24 00:55:37;;;;;;;;;;;;;;;;;;5092709;28;19920;-87
2023/07/24 00:58:03;;;;;;;;;;;;;;;;;;5092355;28;20334;-87
2023/07/24 01:00:29;;;;;;;;;;;;;;;;;;5074475;28;19971;-87
2023/07/24 01:02:54;;;;;;;;;;;;;;;;;;5091320;28;20014;-87
2023/07/24 01:05:20;;;;;;;;;;;;;;;;;;5092668;28;19920;-87
2023/07/24 01:07:46;;;;;;;;;;;;;;;;;;5074277;28;19929;-88
2023/07/24 01:10:12;;;;;;;;;;;;;;;;;;5091183;28;20383;-88
2023/07/24 01:12:38;;;;;;;;;;;;;;;;;;5074390;28;20300;-88
2023/07/24 01:15:04;;;;;;;;;;;;;;;;;;5091461;28;19920;-88
2023/07/24 01:17:30;;;;;;;;;;;;;;;;;;5091052;28;19974;-88
2023/07/24 01:19:56;;;;;;;;;;;;;;;;;;5091081;28;20033;-87
2023/07/24 01:22:22;;;;;;;;;;;;;;;;;;5091448;28;19920;-88
2023/07/24 01:24:48;;;;;;;;;;;;;;;;;;5092371;28;20020;-88
2023/07/24 01:27:13;;;;;;;;;;;;;;;;;;5092353;28;19924;-88
2023/07/24 01:29:39;;;;;;;;;;;;;;;;;;5074437;28;20023;-88
2023/07/24 01:32:05;;;;;;;;;;;;;;;;;;5090884;28;20372;-87
2023/07/24 01:34:31;;;;;;;;;;;;;;;;;;5090924;28;20009;-88
2023/07/24 01:36:57;;;;;;;;;;;;;;;;;;5092082;28;19943;-88
2023/07/24 01:39:23;;;;;;;;;;;;;;;;;;5074310;28;20380;-88
2023/07/24 01:41:49;;;;;;;;;;;;;;;;;;5091269;28;19920;-88
2023/07/24 01:44:15;;;;;;;;;;;;;;;;;;5091095;28;20509;-88
2023/07/24 01:46:41;;;;;;;;;;;;;;;;;;5092219;28;19920;-88
2023/07/24 01:49:06;;;;;;;;;;;;;;;;;;5095235;28;19920;-89
2023/07/24 01:51:32;;;;;;;;;;;;;;;;;;5095968;28;19924;-87
2023/07/24 01:53:58;;;;;;;;;;;;;;;;;;5095251;28;19927;-87
2023/07/24 01:56:24;;;;;;;;;;;;;;;;;;5095902;28;19934;-88
2023/07/24 01:58:50;;;;;;;;;;;;;;;;;;5094811;28;19932;-88
2023/07/24 02:01:16;;;;;;;;;;;;;;;;;;5096107;28;20169;-88
2023/07/24 02:03:42;;;;;;;;;;;;;;;;;;5095052;28;20435;-88
2023/07/24 02:06:08;;;;;;;;;;;;;;;;;;5094401;28;19928;-88
2023/07/24 02:08:34;;;;;;;;;;;;;;;;;;5094497;28;19928;-88
2023/07/24 02:11:00;;;;;;;;;;;;;;;;;;5095709;28;19920;-89
2023/07/24 02:13:26;;;;;;;;;;;;;;;;;;5094555;28;20014;-88
2023/07/24 02:15:53;;;;;;;;;;;;;;;;;;5094856;28;19963;-88
2023/07/24 02:18:19;;;;;;;;;;;;;;;;;;5094278;28;19973;-88
2023/07/24 02:20:45;;;;;;;;;;;;;;;;;;5095529;28;19928;-88
2023/07/24 02:23:12;;;;;;;;;;;;;;;;;;5077958;28;20444;-89
2023/07/24 02:25:38;;;;;;;;;;;;;;;;;;5094617;28;19927;-88
2023/07/24 02:28:03;;;;;;;;;;;;;;;;;;5096030;28;19923;-88
2023/07/24 02:30:29;;;;;;;;;;;;;;;;;;5094462;28;19956;-88
2023/07/24 02:32:56;;;;;;;;;;;;;;;;;;5095238;28;19919;-88
2023/07/24 02:35:22;;;;;;;;;;;;;;;;;;5079127;28;19920;-89
2023/07/24 02:37:48;;;;;;;;;;;;;;;;;;5096759;28;19932;-88
2023/07/24 02:40:14;;;;;;;;;;;;;;;;;;5096817;28;19927;-89
2023/07/24 02:42:40;;;;;;;;;;;;;;;;;;5095153;28;20386;-88
2023/07/24 02:45:10;;;;;;;;;;;;;;;;;;5077603;28;19973;-89
2023/07/24 02:47:36;;;;;;;;;;;;;;;;;;5077377;28;19920;-89
2023/07/24 02:50:02;;;;;;;;;;;;;;;;;;5094495;28;20330;-88
2023/07/24 02:52:28;;;;;;;;;;;;;;;;;;5094460;28;19927;-89
2023/07/24 02:54:54;;;;;;;;;;;;;;;;;;5096181;28;19966;-88
2023/07/24 02:57:20;;;;;;;;;;;;;;;;;;5094292;28;19943;-88
2023/07/24 02:59:46;;;;;;;;;;;;;;;;;;5094362;28;19920;-88
2023/07/24 03:02:12;;;;;;;;;;;;;;;;;;5094179;28;19985;-88
2023/07/24 03:04:38;;;;;;;;;;;;;;;;;;5093773;28;20018;-88
2023/07/24 03:07:04;;;;;;;;;;;;;;;;;;5093414;28;19924;-88
2023/07/24 03:09:29;;;;;;;;;;;;;;;;;;5093464;28;19996;-88
2023/07/24 03:11:55;;;;;;;;;;;;;;;;;;5094765;28;20264;-89
2023/07/24 03:14:21;;;;;;;;;;;;;;;;;;5093313;28;19920;-89
2023/07/24 03:16:47;;;;;;;;;;;;;;;;;;5094866;28;19920;-89
2023/07/24 03:19:13;;;;;;;;;;;;;;;;;;5092978;28;19928;-89
2023/07/24 03:21:39;;;;;;;;;;;;;;;;;;5093047;28;19920;-89
2023/07/24 03:24:05;;;;;;;;;;;;;;;;;;5094260;28;20006;-88
2023/07/24 03:26:31;;;;;;;;;;;;;;;;;;5093105;28;19920;-88
2023/07/24 03:28:57;;;;;;;;;;;;;;;;;;5094448;28;19920;-88
2023/07/24 03:31:23;;;;;;;;;;;;;;;;;;5092768;28;20252;-88
2023/07/24 03:33:49;;;;;;;;;;;;;;;;;;5092988;28;19920;-88
2023/07/24 03:36:15;;;;;;;;;;;;;;;;;;5092718;28;19927;-88
2023/07/24 03:38:40;;;;;;;;;;;;;;;;;;5094115;28;19936;-88
2023/07/24 03:41:06;;;;;;;;;;;;;;;;;;5094066;28;19920;-88
2023/07/24 03:43:32;;;;;;;;;;;;;;;;;;5093940;28;20379;-88
2023/07/24 03:45:58;;;;;;;;;;;;;;;;;;5092565;28;19920;-88
2023/07/24 03:48:24;;;;;;;;;;;;;;;;;;5093022;28;20023;-88
2023/07/24 03:50:50;;;;;;;;;;;;;;;;;;5093868;28;19960;-88
2023/07/24 03:53:16;;;;;;;;;;;;;;;;;;5092593;28;19970;-88
2023/07/24 03:55:42;;;;;;;;;;;;;;;;;;5093491;28;19924;-88
2023/07/24 03:58:08;;;;;;;;;;;;;;;;;;5092189;28;20251;-89
2023/07/24 04:00:34;;;;;;;;;;;;;;;;;;5092196;28;20061;-88
2023/07/24 04:03:00;;;;;;;;;;;;;;;;;;5092416;28;19928;-88
2023/07/24 04:05:27;;;;;;;;;;;;;;;;;;5075296;28;19920;-88
2023/07/24 04:07:53;;;;;;;;;;;;;;;;;;5093245;28;20432;-88
2023/07/24 04:10:18;;;;;;;;;;;;;;;;;;5092029;28;19924;-88
2023/07/24 04:12:44;;;;;;;;;;;;;;;;;;5092032;28;19927;-90
2023/07/24 04:15:10;;;;;;;;;;;;;;;;;;5091866;28;20295;-87
2023/07/24 04:17:38;;;;;;;;;;;;;;;;;;5091837;28;19947;-87
2023/07/24 04:20:04;;;;;;;;;;;;;;;;;;5093342;28;19946;-86
2023/07/24 04:22:30;;;;;;;;;;;;;;;;;;5091894;28;20355;-86
2023/07/24 04:24:56;;;;;;;;;;;;;;;;;;5091766;28;19972;-87
2023/07/24 04:27:22;;;;;;;;;;;;;;;;;;5091485;28;19920;-87
2023/07/24 04:29:48;;;;;;;;;;;;;;;;;;5091815;28;19920;-88
2023/07/24 04:32:14;;;;;;;;;;;;;;;;;;5091981;28;19927;-87
2023/07/24 04:34:39;;;;;;;;;;;;;;;;;;5091488;28;19926;-87
2023/07/24 04:37:05;;;;;;;;;;;;;;;;;;5074592;28;20010;-88
2023/07/24 04:39:31;;;;;;;;;;;;;;;;;;5091644;28;19978;-88
2023/07/24 04:41:57;;;;;;;;;;;;;;;;;;5091532;28;19920;-87
2023/07/24 04:44:23;;;;;;;;;;;;;;;;;;5091496;28;19954;-88
2023/07/24 04:46:50;;;;;;;;;;;;;;;;;;5091364;28;19920;-87
2023/07/24 04:49:16;;;;;;;;;;;;;;;;;;5092657;28;19928;-88
2023/07/24 04:51:41;;;;;;;;;;;;;;;;;;5092606;28;19920;-88
2023/07/24 04:54:07;;;;;;;;;;;;;;;;;;5091263;28;19931;-88
2023/07/24 04:56:33;;;;;;;;;;;;;;;;;;5092399;28;19928;-87
2023/07/24 04:58:59;;;;;;;;;;;;;;;;;;5091090;28;19971;-87
2023/07/24 05:01:25;;;;;;;;;;;;;;;;;;5091088;28;20039;-88
2023/07/24 05:03:51;;;;;;;;;;;;;;;;;;5091181;28;19986;-88
2023/07/24 05:06:17;;;;;;;;;;;;;;;;;;5091416;28;20316;-91
2023/07/24 05:08:43;;;;;;;;;;;;;;;;;;5092442;28;19920;-89
2023/07/24 05:11:09;;;;;;;;;;;;;;;;;;5091056;28;19920;-88
2023/07/24 05:13:35;;;;;;;;;;;;;;;;;;5091317;28;19965;-87
2023/07/24 05:16:01;;;;;;;;;;;;;;;;;;5091376;28;20462;-92
2023/07/24 05:18:27;;;;;;;;;;;;;;;;;;5074170;28;20014;-88
2023/07/24 05:20:53;;;;;;;;;;;;;;;;;;5091583;28;20398;-88
2023/07/24 05:23:18;;;;;;;;;;;;;;;;;;5074156;28;19920;-87
2023/07/24 05:25:44;;;;;;;;;;;;;;;;;;5092369;28;19920;-88
2023/07/24 05:28:10;;;;;;;;;;;;;;;;;;5090612;28;19920;-87
2023/07/24 05:30:36;;;;;;;;;;;;;;;;;;5074325;28;19920;-88
2023/07/24 05:33:02;;;;;;;;;;;;;;;;;;5092325;28;19923;-87
2023/07/24 05:35:28;;;;;;;;;;;;;;;;;;5090904;28;19931;-88
2023/07/24 05:37:54;;;;;;;;;;;;;;;;;;5090778;28;20026;-88
2023/07/24 05:40:20;;;;;;;;;;;;;;;;;;5073872;28;19920;-88
2023/07/24 05:42:47;;;;;;;;;;;;;;;;;;5090622;28;19920;-88
2023/07/24 05:45:14;;;;;;;;;;;;;;;;;;5090735;28;19920;-88
2023/07/24 05:47:40;;;;;;;;;;;;;;;;;;5073685;28;20372;-89
2023/07/24 05:50:06;;;;;;;;;;;;;;;;;;5090961;28;19920;-89
2023/07/24 05:52:32;;;;;;;;;;;;;;;;;;5091049;28;19930;-88
2023/07/24 05:54:58;;;;;;;;;;;;;;;;;;5090389;28;19955;-88
2023/07/24 05:57:24;;;;;;;;;;;;;;;;;;5090632;28;20249;-88
2023/07/24 05:59:51;;;;;;;;;;;;;;;;;;5073746;28;19927;-87
2023/07/24 06:02:17;;;;;;;;;;;;;;;;;;5090482;28;19978;-88
2023/07/24 06:04:43;;;;;;;;;;;;;;;;;;5090928;28;19924;-87
2023/07/24 06:07:09;;;;;;;;;;;;;;;;;;5090804;28;20332;-87
2023/07/24 06:09:35;;;;;;;;;;;;;;;;;;5073477;28;19971;-87
2023/07/24 06:12:01;;;;;;;;;;;;;;;;;;5090305;28;20066;-88
2023/07/24 06:14:27;;;;;;;;;;;;;;;;;;5092780;28;19920;-87
2023/07/24 06:16:53;;;;;;;;;;;;;;;;;;5090311;28;20316;-88
2023/07/24 06:19:19;;;;;;;;;;;;;;;;;;5073449;28;19928;-88
2023/07/24 06:21:45;;;;;;;;;;;;;;;;;;5073607;28;19920;-87
2023/07/24 06:24:12;;;;;;;;;;;;;;;;;;5090326;28;19928;-88
2023/07/24 06:26:38;;;;;;;;;;;;;;;;;;5090567;28;19970;-87
2023/07/24 06:29:04;;;;;;;;;;;;;;;;;;5090791;28;19981;-87
2023/07/24 06:31:30;;;;;;;;;;;;;;;;;;5073511;28;19920;-87
2023/07/24 06:33:56;;;;;;;;;;;;;;;;;;5092282;28;20058;-87
2023/07/24 06:36:22;;;;;;;;;;;;;;;;;;5094042;28;20380;-88
2023/07/24 06:38:47;;;;;;;;;;;;;;;;;;5093811;28;19924;-88
2023/07/24 06:41:15;;;;;;;;;;;;;;;;;;5094232;28;19920;-87
2023/07/24 06:43:41;;;;;;;;;;;;;;;;;;5077069;28;19920;-87
2023/07/24 06:46:07;;;;;;;;;;;;;;;;;;5093892;28;19943;-88
2023/07/24 06:48:33;;;;;;;;;;;;;;;;;;5093694;28;19963;-88
2023/07/24 06:50:58;;;;;;;;;;;;;;;;;;5093676;28;20384;-88
2023/07/24 06:53:24;;;;;;;;;;;;;;;;;;5093678;28;19920;-88
2023/07/24 06:55:50;;;;;;;;;;;;;;;;;;5094981;28;20287;-88
2023/07/24 06:58:16;;;;;;;;;;;;;;;;;;5076644;28;20228;-88
2023/07/24 07:00:42;;;;;;;;;;;;;;;;;;5095207;28;20374;-87
2023/07/24 07:03:08;;;;;;;;;;;;;;;;;;5076697;28;19932;-87
2023/07/24 07:05:34;;;;;;;;;;;;;;;;;;5094611;28;19924;-87
2023/07/24 07:08:00;;;;;;;;;;;;;;;;;;5093359;28;19920;-87
2023/07/24 07:10:26;;;;;;;;;;;;;;;;;;5094768;28;19927;-87
2023/07/24 07:12:52;;;;;;;;;;;;;;;;;;5093171;28;19943;-88
2023/07/24 07:15:17;;;;;;;;;;;;;;;;;;5093239;28;19924;-86
2023/07/24 07:17:43;;;;;;;;;;;;;;;;;;5092989;28;19928;-86
2023/07/24 07:20:09;;;;;;;;;;;;;;;;;;5093140;28;19967;-88
2023/07/24 07:22:35;;;;;;;;;;;;;;;;;;5094475;28;20008;-88
2023/07/24 07:25:01;;;;;;;;;;;;;;;;;;5094455;28;19942;-88
2023/07/24 07:27:27;;;;;;;;;;;;;;;;;;5076020;28;19927;-88
2023/07/24 07:29:53;;;;;;;;;;;;;;;;;;5092994;28;20295;-89
2023/07/24 07:32:19;;;;;;;;;;;;;;;;;;5075370;28;19927;-87
2023/07/24 07:34:45;;;;;;;;;;;;;;;;;;5112992;28;19927;-87
2023/07/24 07:37:10;;;;;;;;;;;;;;;;;;5112739;28;20271;-87
2023/07/24 07:39:36;;;;;;;;;;;;;;;;;;5112717;28;19927;-87
2023/07/24 07:42:02;;;;;;;;;;;;;;;;;;5113449;28;20012;-88
2023/07/24 07:44:28;;;;;;;;;;;;;;;;;;5114078;28;19924;-88
2023/07/24 07:46:54;;;;;;;;;;;;;;;;;;5114192;28;19942;-87
2023/07/24 07:49:20;;;;;;;;;;;;;;;;;;5113229;28;20251;-89
2023/07/24 07:51:46;;;;;;;;;;;;;;;;;;5112755;28;19919;-87
2023/07/24 07:54:12;;;;;;;;;;;;;;;;;;5114412;28;19963;-87
2023/07/24 07:56:38;;;;;;;;;;;;;;;;;;5112725;28;19931;-90
2023/07/24 07:59:04;;;;;;;;;;;;;;;;;;5095822;28;19977;-90
2023/07/24 08:01:30;;;;;;;;;;;;;;;;;;5112895;28;19972;-90
2023/07/24 08:03:56;;;;;;;;;;;;;;;;;;5112689;28;20336;-89
2023/07/24 08:06:22;;;;;;;;;;;;;;;;;;5095500;28;19931;-92
2023/07/24 08:08:48;;;;;;;;;;;;;;;;;;5112705;28;19919;-89
2023/07/24 08:11:14;;;;;;;;;;;;;;;;;;5113086;28;19923;-88
2023/07/24 08:13:40;;;;;;;;;;;;;;;;;;5095980;28;20372;-91
2023/07/24 08:16:06;;;;;;;;;;;;;;;;;;5095572;28;19927;-87
2023/07/24 08:18:32;;;;;;;;;;;;;;;;;;5095084;28;19924;-88
2023/07/24 08:20:58;;;;;;;;;;;;;;;;;;5112248;28;19920;-87
2023/07/24 08:23:24;;;;;;;;;;;;;;;;;;5113601;28;19926;-87
2023/07/24 08:25:50;;;;;;;;;;;;;;;;;;5095141;28;19981;-87
2023/07/24 08:28:15;;;;;;;;;;;;;;;;;;5112071;28;19920;-86
2023/07/24 08:30:41;;;;;;;;;;;;;;;;;;5112119;28;19920;-85
2023/07/24 08:33:07;;;;;;;;;;;;;;;;;;5112229;28;19930;-87
2023/07/24 08:35:33;;;;;;;;;;;;;;;;;;5113139;28;19919;-86
2023/07/24 08:37:59;;;;;;;;;;;;;;;;;;5095012;28;19994;-87
2023/07/24 08:40:25;;;;;;;;;;;;;;;;;;5112024;28;20025;-88
2023/07/24 08:42:51;;;;;;;;;;;;;;;;;;5111972;28;20006;-87
2023/07/24 08:45:17;;;;;;;;;;;;;;;;;;5112043;28;19927;-86
2023/07/24 08:47:44;;;;;;;;;;;;;;;;;;5094803;28;19926;-86
2023/07/24 08:50:11;;;;;;;;;;;;;;;;;;5111704;28;20432;-86
2023/07/24 08:52:37;;;;;;;;;;;;;;;;;;5094811;28;19926;-86
2023/07/24 08:55:03;;;;;;;;;;;;;;;;;;5112810;28;19919;-86
2023/07/24 08:57:29;;;;;;;;;;;;;;;;;;5112437;28;19938;-88
2023/07/24 08:59:55;;;;;;;;;;;;;;;;;;5113352;28;19920;-86
2023/07/24 09:02:21;;;;;;;;;;;;;;;;;;5111578;28;19920;-87
2023/07/24 09:04:47;;;;;;;;;;;;;;;;;;5111599;28;19920;-86
2023/07/24 09:07:13;;;;;;;;;;;;;;;;;;5113016;28;19919;-86
2023/07/24 09:09:39;;;;;;;;;;;;;;;;;;5111567;28;19920;-86
2023/07/24 09:12:04;;;;;;;;;;;;;;;;;;5111496;28;20060;-86
2023/07/24 09:14:30;;;;;;;;;;;;;;;;;;5112682;28;19985;-86
2023/07/24 09:16:56;;;;;;;;;;;;;;;;;;5111508;28;20280;-86
2023/07/24 09:19:22;;;;;;;;;;;;;;;;;;5111263;28;20371;-90
2023/07/24 09:21:48;;;;;;;;;;;;;;;;;;5094858;28;19919;-86
2023/07/24 09:24:14;;;;;;;;;;;;;;;;;;5111735;28;20410;-87
2023/07/24 09:26:40;;;;;;;;;;;;;;;;;;5111335;28;19926;-87
2023/07/24 09:29:06;;;;;;;;;;;;;;;;;;5111261;28;19920;-91
2023/07/24 09:31:32;;;;;;;;;;;;;;;;;;5111439;28;20367;-87
2023/07/24 09:33:58;;;;;;;;;;;;;;;;;;5109450;28;19920;-86
2023/07/24 09:36:24;;;;;;;;;;;;;;;;;;5112236;28;19924;-86
2023/07/24 09:38:51;;;;;;;;;;;;;;;;;;5111086;28;20400;-87
2023/07/24 09:41:17;;;;;;;;;;;;;;;;;;5112502;28;19972;-87
2023/07/24 09:43:43;;;;;;;;;;;;;;;;;;5094139;28;19924;-86
2023/07/24 09:46:09;;;;;;;;;;;;;;;;;;5094055;28;20606;-86
2023/07/24 09:48:35;;;;;;;;;;;;;;;;;;5110899;28;19927;-90
2023/07/24 09:51:01;;;;;;;;;;;;;;;;;;5110986;28;19920;-87
2023/07/24 09:53:27;;;;;;;;;;;;;;;;;;5112898;28;20353;-87
2023/07/24 09:55:53;;;;;;;;;;;;;;;;;;5113627;28;19928;-87
2023/07/24 09:58:19;;;;;;;;;;;;;;;;;;5110973;28;19923;-88
2023/07/24 10:00:45;;;;;;;;;;;;;;;;;;5111652;28;19927;-89
2023/07/24 10:03:11;;;;;;;;;;;;;;;;;;5094457;28;20291;-91
2023/07/24 10:05:37;;;;;;;;;;;;;;;;;;5112567;28;19973;-90
2023/07/24 10:08:03;;;;;;;;;;;;;;;;;;5097202;28;19920;-88
2023/07/24 10:10:32;;;;;;;;;;;;;;;;;;5098396;28;19920;-86
2023/07/24 10:12:57;;;;;;;;;;;;;;;;;;5114798;28;19919;-87
2023/07/24 10:15:23;;;;;;;;;;;;;;;;;;5116080;28;19930;-87
2023/07/24 10:17:49;;;;;;;;;;;;;;;;;;5114439;28;19928;-87
2023/07/24 10:20:15;;;;;;;;;;;;;;;;;;5114761;28;19924;-87
2023/07/24 10:22:41;;;;;;;;;;;;;;;;;;5097455;28;19923;-87
2023/07/24 10:25:07;;;;;;;;;;;;;;;;;;5116097;28;20360;-88
2023/07/24 10:27:33;;;;;;;;;;;;;;;;;;5097293;28;19919;-87
2023/07/24 10:29:59;;;;;;;;;;;;;;;;;;5116003;28;19949;-87
2023/07/24 10:32:25;;;;;;;;;;;;;;;;;;5114550;28;19926;-87
2023/07/24 10:34:51;;;;;;;;;;;;;;;;;;5114589;28;19971;-88
2023/07/24 10:37:17;;;;;;;;;;;;;;;;;;5114356;28;20343;-87
2023/07/24 10:39:43;;;;;;;;;;;;;;;;;;5114133;28;19972;-87
2023/07/24 10:42:09;;;;;;;;;;;;;;;;;;5115664;28;20035;-88
2023/07/24 10:44:35;;;;;;;;;;;;;;;;;;5115658;28;19926;-87
2023/07/24 10:47:01;;;;;;;;;;;;;;;;;;5096856;28;19931;-87
2023/07/24 10:49:27;;;;;;;;;;;;;;;;;;5113960;28;19919;-87
2023/07/24 10:51:53;;;;;;;;;;;;;;;;;;5114432;28;19927;-87
2023/07/24 10:54:19;;;;;;;;;;;;;;;;;;5114243;28;20026;-88
2023/07/24 10:56:45;;;;;;;;;;;;;;;;;;5114134;28;19963;-88
2023/07/24 10:59:11;;;;;;;;;;;;;;;;;;5096928;28;20010;-88
2023/07/24 11:01:37;;;;;;;;;;;;;;;;;;5114188;28;20495;-88
2023/07/24 11:04:02;;;;;;;;;;;;;;;;;;5109002;28;20306;-89
2023/07/24 11:06:28;;;;;;;;;;;;;;;;;;5096576;28;19920;-88
2023/07/24 11:08:56;;;;;;;;;;;;;;;;;;5115250;28;20011;-88
2023/07/24 11:11:23;;;;;;;;;;;;;;;;;;5096558;28;19920;-87
2023/07/24 11:13:49;;;;;;;;;;;;;;;;;;5097036;28;19974;-88
2023/07/24 11:16:15;;;;;;;;;;;;;;;;;;5113848;28;19967;-88
2023/07/24 11:18:41;;;;;;;;;;;;;;;;;;5112662;28;20264;-88
2023/07/24 11:21:08;;;;;;;;;;;;;;;;;;5096056;28;19919;-88
2023/07/24 11:23:34;;;;;;;;;;;;;;;;;;5096549;28;20366;-89
2023/07/24 11:26:01;;;;;;;;;;;;;;;;;;5113444;28;19919;-90
2023/07/24 11:28:27;;;;;;;;;;;;;;;;;;5113683;28;20038;-90
2023/07/24 11:30:53;;;;;;;;;;;;;;;;;;5114705;28;19978;-93
2023/07/24 11:33:18;;;;;;;;;;;;;;;;;;5114611;28;19966;-90
2023/07/24 11:35:44;;;;;;;;;;;;;;;;;;5095763;28;19928;-89
2023/07/24 11:38:10;;;;;;;;;;;;;;;;;;5113039;28;19923;-91
2023/07/24 11:40:36;;;;;;;;;;;;;;;;;;5113500;28;20135;-90
2023/07/24 11:43:02;;;;;;;;;;;;;;;;;;5096024;28;19927;-91
2023/07/24 11:45:28;;;;;;;;;;;;;;;;;;5113431;28;19927;-91
2023/07/24 11:47:55;;;;;;;;;;;;;;;;;;5096008;28;20020;-91
2023/07/24 11:50:22;;;;;;;;;;;;;;;;;;5113243;28;19919;-90
2023/07/24 11:52:48;;;;;;;;;;;;;;;;;;5096111;28;19919;-91
2023/07/24 11:55:14;;;;;;;;;;;;;;;;;;5095765;28;19931;-90
2023/07/24 11:57:40;;;;;;;;;;;;;;;;;;5114061;28;19928;-90
2023/07/24 12:00:06;;;;;;;;;;;;;;;;;;5112833;28;19930;-91
2023/07/24 12:02:32;;;;;;;;;;;;;;;;;;5112418;28;20002;-88
2023/07/24 12:04:58;;;;;;;;;;;;;;;;;;5112502;28;20343;-88
2023/07/24 12:07:24;;;;;;;;;;;;;;;;;;5112421;28;20014;-90
2023/07/24 12:09:50;;;;;;;;;;;;;;;;;;5095524;28;19920;-90
2023/07/24 12:12:17;;;;;;;;;;;;;;;;;;5112460;28;19919;-89
2023/07/24 12:14:43;;;;;;;;;;;;;;;;;;5095496;28;19973;-87
2023/07/24 12:17:12;;;;;;;;;;;;;;;;;;5110580;28;19967;-88
2023/07/24 12:19:38;;;;;;;;;;;;;;;;;;5095167;28;19923;-90
2023/07/24 12:22:04;;;;;;;;;;;;;;;;;;5111937;28;19949;-89
2023/07/24 12:24:30;;;;;;;;;;;;;;;;;;5112096;28;19949;-90
2023/07/24 12:26:56;;;;;;;;;;;;;;;;;;5112178;28;20321;-89
2023/07/24 12:29:22;;;;;;;;;;;;;;;;;;5112101;28;19969;-90
2023/07/24 12:31:48;;;;;;;;;;;;;;;;;;5112028;28;19926;-89
2023/07/24 12:34:14;;;;;;;;;;;;;;;;;;5094826;28;19924;-88
2023/07/24 12:36:40;;;;;;;;;;;;;;;;;;5111880;28;20290;-88
2023/07/24 12:39:05;;;;;;;;;;;;;;;;;;5111816;28;20384;-88
2023/07/24 12:41:31;;;;;;;;;;;;;;;;;;5112976;28;19920;-90
2023/07/24 12:43:57;;;;;;;;;;;;;;;;;;5094475;28;20202;-88
2023/07/24 12:46:23;;;;;;;;;;;;;;;;;;5094985;28;19920;-88
2023/07/24 12:48:49;;;;;;;;;;;;;;;;;;5111914;28;19920;-89
2023/07/24 12:51:15;;;;;;;;;;;;;;;;;;5111510;28;19942;-89
2023/07/24 12:53:41;;;;;;;;;;;;;;;;;;5094115;28;20295;-90
2023/07/24 12:56:07;;;;;;;;;;;;;;;;;;5094087;28;19979;-90
2023/07/24 12:58:33;;;;;;;;;;;;;;;;;;5111539;28;19924;-90
2023/07/24 13:01:01;;;;;;;;;;;;;;;;;;5112275;28;20401;-91
2023/07/24 13:03:26;;;;;;;;;;;;;;;;;;5094563;28;19982;-89
2023/07/24 13:05:52;;;;;;;;;;;;;;;;;;5111560;28;19920;-89
2023/07/24 13:08:21;;;;;;;;;;;;;;;;;;5111618;28;20266;-91
2023/07/24 13:10:47;;;;;;;;;;;;;;;;;;5094406;28;20350;-90
2023/07/24 13:13:13;;;;;;;;;;;;;;;;;;5111256;28;20091;-93
2023/07/24 13:15:39;;;;;;;;;;;;;;;;;;5111861;28;19919;-93
2023/07/24 13:18:05;;;;;;;;;;;;;;;;;;5094869;28;20041;-92
2023/07/24 13:20:31;;;;;;;;;;;;;;;;;;5094912;28;19927;-92
2023/07/24 13:22:57;;;;;;;;;;;;;;;;;;5094999;28;20287;-92
2023/07/24 13:25:23;;;;;;;;;;;;;;;;;;5114295;28;19927;-91
2023/07/24 13:27:50;;;;;;;;;;;;;;;;;;5094695;28;19927;-92
2023/07/24 13:30:16;;;;;;;;;;;;;;;;;;5095043;28;19967;-92
2023/07/24 13:32:42;;;;;;;;;;;;;;;;;;5111630;28;19972;-91
2023/07/24 13:35:08;;;;;;;;;;;;;;;;;;5112904;28;19931;-92
2023/07/24 13:37:33;;;;;;;;;;;;;;;;;;5113535;28;19940;-92
2023/07/24 13:39:59;;;;;;;;;;;;;;;;;;5094437;28;19928;-94
2023/07/24 13:42:25;;;;;;;;;;;;;;;;;;5095770;28;19923;-93
2023/07/24 13:44:51;;;;;;;;;;;;;;;;;;5099313;28;19924;-93
2023/07/24 13:47:17;;;;;;;;;;;;;;;;;;5115782;28;19920;-91
2023/07/24 13:49:43;;;;;;;;;;;;;;;;;;5098858;28;19920;-92
2023/07/24 13:52:09;;;;;;;;;;;;;;;;;;5115468;28;19968;-93
2023/07/24 13:54:35;;;;;;;;;;;;;;;;;;5098984;28;19960;-93
2023/07/24 13:57:01;;;;;;;;;;;;;;;;;;5115771;28;19999;-93
2023/07/24 13:59:27;;;;;;;;;;;;;;;;;;5103318;28;20402;-92
2023/07/24 14:01:53;;;;;;;;;;;;;;;;;;5101207;28;19919;-92
2023/07/24 14:04:19;;;;;;;;;;;;;;;;;;5115523;28;19920;-93
2023/07/24 14:06:45;;;;;;;;;;;;;;;;;;5098187;28;19920;-92
2023/07/24 14:09:11;;;;;;;;;;;;;;;;;;5115448;28;20275;-90
2023/07/24 14:11:36;;;;;;;;;;;;;;;;;;5116518;28;19919;-93
2023/07/24 14:14:02;;;;;;;;;;;;;;;;;;5115506;28;19920;-93
2023/07/24 14:16:29;;;;;;;;;;;;;;;;;;5097901;28;20007;-90
2023/07/24 14:18:54;;;;;;;;;;;;;;;;;;5115102;28;20240;-91
2023/07/24 14:21:20;;;;;;;;;;;;;;;;;;5115183;28;19927;-92
2023/07/24 14:23:46;;;;;;;;;;;;;;;;;;5114585;28;20108;-90
2023/07/24 14:26:12;;;;;;;;;;;;;;;;;;5114484;28;19966;-89
2023/07/24 14:28:38;;;;;;;;;;;;;;;;;;5097698;28;19920;-91
2023/07/24 14:31:05;;;;;;;;;;;;;;;;;;5097673;28;19923;-91
2023/07/24 14:33:31;;;;;;;;;;;;;;;;;;5115888;28;19920;-91
2023/07/24 14:35:57;;;;;;;;;;;;;;;;;;5097184;28;19920;-90
2023/07/24 14:38:23;;;;;;;;;;;;;;;;;;5114804;28;20422;-90
2023/07/24 14:40:49;;;;;;;;;;;;;;;;;;5114269;28;20412;-91
2023/07/24 14:43:14;;;;;;;;;;;;;;;;;;5097030;28;19920;-90
2023/07/24 14:45:40;;;;;;;;;;;;;;;;;;5097053;28;19959;-91
2023/07/24 14:48:12;;;;;;;;;;;;;;;;;;5097141;28;20282;-90
2023/07/24 14:50:38;;;;;;;;;;;;;;;;;;5115818;28;20378;-91
2023/07/24 14:53:04;;;;;;;;;;;;;;;;;;5115870;28;19923;-90
2023/07/24 14:55:30;;;;;;;;;;;;;;;;;;5095637;28;19932;-89
2023/07/24 14:57:56;;;;;;;;;;;;;;;;;;5115182;28;19970;-90
2023/07/24 15:00:21;;;;;;;;;;;;;;;;;;5114142;28;19938;-90
2023/07/24 15:02:48;;;;;;;;;;;;;;;;;;5115133;28;20374;-90
2023/07/24 15:05:13;;;;;;;;;;;;;;;;;;5115140;28;20624;-89
2023/07/24 15:07:39;;;;;;;;;;;;;;;;;;5114345;28;19920;-90
2023/07/24 15:10:05;;;;;;;;;;;;;;;;;;5113937;28;19926;-89
2023/07/24 15:12:31;;;;;;;;;;;;;;;;;;5113627;28;19926;-89
2023/07/24 15:14:57;;;;;;;;;;;;;;;;;;5115297;28;19920;-89
2023/07/24 15:17:23;;;;;;;;;;;;;;;;;;5096472;28;19919;-89
2023/07/24 15:19:49;;;;;;;;;;;;;;;;;;5113479;28;19924;-89
2023/07/24 15:22:15;;;;;;;;;;;;;;;;;;5113403;28;20022;-90
2023/07/24 15:24:41;;;;;;;;;;;;;;;;;;5113945;28;20271;-89
2023/07/24 15:27:10;;;;;;;;;;;;;;;;;;5114610;28;20014;-89
2023/07/24 15:29:36;;;;;;;;;;;;;;;;;;5096297;28;19923;-89
2023/07/24 15:32:02;;;;;;;;;;;;;;;;;;5113244;28;19944;-88
2023/07/24 15:34:28;;;;;;;;;;;;;;;;;;5096302;28;19932;-89
2023/07/24 15:36:54;;;;;;;;;;;;;;;;;;5096157;28;20449;-89
2023/07/24 15:39:20;;;;;;;;;;;;;;;;;;5113023;28;19924;-89
2023/07/24 15:41:46;;;;;;;;;;;;;;;;;;5114301;28;20287;-89
2023/07/24 15:44:12;;;;;;;;;;;;;;;;;;5112939;28;19919;-89
2023/07/24 15:46:38;;;;;;;;;;;;;;;;;;5114079;28;19927;-91
2023/07/24 15:49:04;;;;;;;;;;;;;;;;;;5115548;28;19928;-90
2023/07/24 15:51:31;;;;;;;;;;;;;;;;;;5114545;28;19920;-89
2023/07/24 15:53:57;;;;;;;;;;;;;;;;;;5096082;28;19963;-90
2023/07/24 15:56:23;;;;;;;;;;;;;;;;;;5112576;28;20220;-90
2023/07/24 15:58:49;;;;;;;;;;;;;;;;;;5114205;28;20002;-90
2023/07/24 16:01:15;;;;;;;;;;;;;;;;;;5095905;28;19927;-90
2023/07/24 16:03:42;;;;;;;;;;;;;;;;;;5112711;28;19926;-90
2023/07/24 16:06:09;;;;;;;;;;;;;;;;;;5112171;28;20031;-90
2023/07/24 16:08:35;;;;;;;;;;;;;;;;;;5112601;28;19919;-90
2023/07/24 16:11:01;;;;;;;;;;;;;;;;;;5113172;28;19974;-90
2023/07/24 16:13:27;;;;;;;;;;;;;;;;;;5112808;28;20375;-89
2023/07/24 16:15:53;;;;;;;;;;;;;;;;;;5095799;28;20355;-90
2023/07/24 16:18:19;;;;;;;;;;;;;;;;;;5112717;28;19934;-90
2023/07/24 16:20:45;;;;;;;;;;;;;;;;;;5112331;28;19942;-90
2023/07/24 16:23:11;;;;;;;;;;;;;;;;;;5112467;28;19924;-90
2023/07/24 16:25:37;;;;;;;;;;;;;;;;;;5095379;28;20039;-90
2023/07/24 16:28:03;;;;;;;;;;;;;;;;;;5112694;28;19920;-91
2023/07/24 16:30:29;;;;;;;;;;;;;;;;;;5113844;28;19934;-90
2023/07/24 16:32:54;;;;;;;;;;;;;;;;;;5112078;28;19923;-90
2023/07/24 16:35:20;;;;;;;;;;;;;;;;;;5095421;28;19920;-90
2023/07/24 16:37:47;;;;;;;;;;;;;;;;;;5095374;28;19920;-91